createdAt,value
2023-02-14T00:01:32.035Z,102394.78
2023-02-14T00:04:01.544Z,102398.22
2023-02-14T00:06:32.728Z,102396.47
2023-02-14T00:09:01.043Z,102390.41
2023-02-14T00:11:31.385Z,102400.69
2023-02-14T00:14:18.174Z,102398.88
2023-02-14T00:16:46.241Z,102392.75
2023-02-14T00:19:15.271Z,102399.50
2023-02-14T00:21:43.507Z,102398.72
2023-02-14T00:24:14.136Z,102399.56
2023-02-14T00:26:43.851Z,102403.19
2023-02-14T00:29:13.673Z,102387.78
2023-02-14T00:31:42.581Z,102388.63
2023-02-14T00:34:11.503Z,102395.44
2023-02-14T00:36:40.141Z,102392.78
2023-02-14T00:39:10.061Z,102397.13
2023-02-14T00:41:38.791Z,102396.13
2023-02-14T00:44:09.840Z,102391.69
2023-02-14T00:46:37.852Z,102396.84
2023-02-14T00:49:05.933Z,102395.06
2023-02-14T00:51:33.944Z,102384.00
2023-02-14T00:54:03.459Z,102386.44
2023-02-14T00:56:33.050Z,102392.50
2023-02-14T00:59:01.201Z,102392.50
2023-02-14T01:01:30.398Z,102392.41
2023-02-14T01:03:59.061Z,102390.75
2023-02-14T01:06:27.176Z,102395.66
2023-02-14T01:08:54.987Z,102392.09
2023-02-14T01:11:24.801Z,102386.97
2023-02-14T01:13:57.095Z,102396.47
2023-02-14T01:22:19.177Z,102401.19
2023-02-14T01:24:47.002Z,102396.16
2023-02-14T01:27:14.972Z,102396.88
2023-02-14T01:29:42.770Z,102394.19
2023-02-14T01:32:10.573Z,102393.22
2023-02-14T01:34:39.919Z,102388.03
2023-02-14T01:37:07.760Z,102385.34
2023-02-14T01:39:36.293Z,102383.59
2023-02-14T01:42:04.181Z,102385.31
2023-02-14T01:45:02.572Z,102389.28
2023-02-14T01:47:37.558Z,102388.41
2023-02-14T01:50:11.609Z,102391.84
2023-02-14T01:52:44.473Z,102398.66
2023-02-14T01:55:18.563Z,102392.72
2023-02-14T01:57:51.234Z,102397.84
2023-02-14T02:00:39.108Z,102399.47
2023-02-14T02:03:09.093Z,102402.91
2023-02-14T02:05:42.115Z,102412.22
2023-02-14T02:08:10.078Z,102410.34
2023-02-14T02:10:37.846Z,102404.97
2023-02-14T02:13:08.580Z,102413.09
2023-02-14T02:15:43.187Z,102414.06
2023-02-14T02:18:17.983Z,102425.59
2023-02-14T02:21:30.910Z,102424.13
2023-02-14T02:24:20.513Z,102425.72
2023-02-14T02:27:17.560Z,102412.25
2023-02-14T02:30:23.715Z,102410.50
2023-02-14T02:33:29.123Z,102408.75
2023-02-14T02:36:22.956Z,102412.25
2023-02-14T02:39:12.400Z,102409.84
2023-02-14T02:41:53.285Z,102406.31
2023-02-14T02:44:35.118Z,102401.13
2023-02-14T02:47:08.697Z,102402.75
2023-02-14T02:50:03.699Z,102403.53
2023-02-14T02:52:59.099Z,102398.34
2023-02-14T02:55:52.726Z,102396.88
2023-02-14T02:58:22.279Z,102393.22
2023-02-14T03:00:52.385Z,102404.13
2023-02-14T03:03:43.232Z,102401.63
2023-02-14T03:06:11.261Z,102398.88
2023-02-14T03:08:40.456Z,102403.19
2023-02-14T03:11:08.468Z,102405.44
2023-02-14T03:13:48.678Z,102406.88
2023-02-14T03:16:32.497Z,102405.81
2023-02-14T03:19:19.959Z,102404.09
2023-02-14T03:21:54.624Z,102406.66
2023-02-14T03:24:31.366Z,102404.25
2023-02-14T03:27:06.947Z,102406.75
2023-02-14T03:29:50.237Z,102401.38
2023-02-14T03:32:26.537Z,102399.41
2023-02-14T03:34:59.952Z,102397.47
2023-02-14T03:37:32.704Z,102398.28
2023-02-14T03:40:09.775Z,102399.88
2023-02-14T03:42:43.600Z,102404.63
2023-02-14T03:45:17.950Z,102407.66
2023-02-14T03:47:47.919Z,102407.50
2023-02-14T03:50:19.503Z,102404.72
2023-02-14T03:52:50.687Z,102408.03
2023-02-14T03:55:28.868Z,102406.19
2023-02-14T03:58:03.047Z,102411.50
2023-02-14T04:00:34.826Z,102404.38
2023-02-14T04:03:07.141Z,102408.25
2023-02-14T04:05:35.012Z,102414.94
2023-02-14T04:08:02.791Z,102421.59
2023-02-14T04:10:33.265Z,102422.38
2023-02-14T04:13:02.105Z,102429.97
2023-02-14T04:15:30.075Z,102429.00
2023-02-14T04:18:15.305Z,102427.34
2023-02-14T04:20:43.008Z,102429.25
2023-02-14T04:23:10.685Z,102430.00
2023-02-14T04:25:42.921Z,102430.84
2023-02-14T04:28:10.856Z,102441.00
2023-02-14T04:30:38.636Z,102437.66
2023-02-14T04:33:07.985Z,102437.81
2023-02-14T04:35:36.067Z,102435.59
2023-02-14T04:38:04.582Z,102430.97
2023-02-14T04:40:33.113Z,102429.63
2023-02-14T04:43:04.657Z,102430.75
2023-02-14T04:45:32.601Z,102432.03
2023-02-14T04:48:00.788Z,102431.34
2023-02-14T04:50:28.589Z,102432.94
2023-02-14T04:52:56.344Z,102423.56
2023-02-14T04:55:24.188Z,102423.06
2023-02-14T04:57:52.107Z,102421.38
2023-02-14T05:00:22.359Z,102427.00
2023-02-14T05:02:50.058Z,102414.94
2023-02-14T05:05:18.151Z,102415.72
2023-02-14T05:07:47.776Z,102409.22
2023-02-14T05:10:16.095Z,102411.22
2023-02-14T05:12:43.736Z,102410.28
2023-02-14T05:15:11.587Z,102409.25
2023-02-14T05:17:40.698Z,102410.03
2023-02-14T05:20:09.397Z,102407.78
2023-02-14T05:22:37.106Z,102415.28
2023-02-14T05:25:04.988Z,102414.41
2023-02-14T05:27:33.669Z,102418.81
2023-02-14T05:30:02.240Z,102414.22
2023-02-14T05:32:30.181Z,102412.50
2023-02-14T05:35:01.099Z,102408.44
2023-02-14T05:37:29.093Z,102413.41
2023-02-14T05:39:56.952Z,102411.94
2023-02-14T05:42:24.810Z,102415.31
2023-02-14T05:44:52.698Z,102408.44
2023-02-14T05:47:20.461Z,102404.25
2023-02-14T05:49:48.434Z,102404.13
2023-02-14T05:52:17.592Z,102411.00
2023-02-14T05:54:45.276Z,102402.72
2023-02-14T05:57:12.989Z,102402.97
2023-02-14T05:59:40.764Z,102405.22
2023-02-14T06:02:08.788Z,102415.41
2023-02-14T06:04:36.830Z,102407.94
2023-02-14T06:07:04.675Z,102415.41
2023-02-14T06:09:34.402Z,102419.72
2023-02-14T06:12:02.559Z,102409.91
2023-02-14T06:14:30.282Z,102413.13
2023-02-14T06:16:58.421Z,102419.94
2023-02-14T06:19:26.147Z,102416.56
2023-02-14T06:21:54.097Z,102424.97
2023-02-14T06:24:21.975Z,102425.84
2023-02-14T06:26:51.059Z,102426.66
2023-02-14T06:29:19.324Z,102424.25
2023-02-14T06:31:47.283Z,102416.63
2023-02-14T06:34:16.297Z,102421.78
2023-02-14T06:36:44.410Z,102422.63
2023-02-14T06:39:12.232Z,102425.28
2023-02-14T06:41:40.013Z,102435.44
2023-02-14T06:44:10.628Z,102432.91
2023-02-14T06:46:38.405Z,102441.59
2023-02-14T06:49:06.047Z,102439.53
2023-02-14T06:51:33.721Z,102441.22
2023-02-14T06:54:02.750Z,102441.38
2023-02-14T06:56:30.438Z,102436.88
2023-02-14T06:58:58.833Z,102438.59
2023-02-14T07:01:28.178Z,102444.09
2023-02-14T07:03:56.087Z,102440.00
2023-02-14T07:06:23.819Z,102428.97
2023-02-14T07:08:51.643Z,102433.31
2023-02-14T07:11:19.543Z,102441.03
2023-02-14T07:13:49.387Z,102440.31
2023-02-14T07:16:17.414Z,102443.72
2023-02-14T07:18:47.249Z,102439.50
2023-02-14T07:21:15.019Z,102436.78
2023-02-14T07:23:46.213Z,102438.69
2023-02-14T07:26:17.915Z,102435.38
2023-02-14T07:28:45.950Z,102441.31
2023-02-14T07:31:14.166Z,102439.69
2023-02-14T07:33:42.106Z,102448.13
2023-02-14T07:36:11.727Z,102448.19
2023-02-14T07:38:40.068Z,102444.09
2023-02-14T07:41:07.881Z,102444.16
2023-02-14T07:43:36.624Z,102442.41
2023-02-14T07:46:05.730Z,102446.31
2023-02-14T07:48:34.465Z,102437.94
2023-02-14T07:51:03.405Z,102436.34
2023-02-14T07:53:33.055Z,102438.03
2023-02-14T07:56:00.947Z,102438.00
2023-02-14T07:58:28.681Z,102430.41
2023-02-14T08:00:57.215Z,102433.25
2023-02-14T08:03:30.287Z,102432.44
2023-02-14T08:05:58.517Z,102433.25
2023-02-14T08:08:27.683Z,102427.25
2023-02-14T08:10:57.315Z,102425.63
2023-02-14T08:13:25.388Z,102429.09
2023-02-14T08:16:05.466Z,102426.75
2023-02-14T08:18:35.572Z,102432.81
2023-02-14T08:21:04.464Z,102434.63
2023-02-14T08:23:32.381Z,102432.88
2023-02-14T08:26:01.652Z,102438.97
2023-02-14T08:28:29.928Z,102428.75
2023-02-14T08:30:58.523Z,102432.22
2023-02-14T08:33:26.692Z,102436.44
2023-02-14T08:35:54.537Z,102434.66
2023-02-14T08:38:22.869Z,102437.25
2023-02-14T08:40:50.577Z,102433.81
2023-02-14T08:43:19.672Z,102425.47
2023-02-14T08:45:48.427Z,102435.19
2023-02-14T08:48:16.348Z,102434.38
2023-02-14T08:50:44.101Z,102437.88
2023-02-14T08:53:14.727Z,102441.31
2023-02-14T08:55:43.025Z,102429.56
2023-02-14T08:58:10.843Z,102431.94
2023-02-14T09:00:40.315Z,102432.94
2023-02-14T09:03:08.353Z,102441.53
2023-02-14T09:05:36.180Z,102434.81
2023-02-14T09:08:04.979Z,102435.63
2023-02-14T09:10:32.783Z,102437.69
2023-02-14T09:13:01.222Z,102434.38
2023-02-14T09:15:29.157Z,102431.88
2023-02-14T09:17:58.452Z,102430.91
2023-02-14T09:20:26.419Z,102430.25
2023-02-14T09:22:56.478Z,102429.25
2023-02-14T09:25:24.330Z,102427.47
2023-02-14T09:27:52.286Z,102430.13
2023-02-14T09:30:20.144Z,102429.44
2023-02-14T09:32:48.125Z,102425.94
2023-02-14T09:35:17.520Z,102431.00
2023-02-14T09:37:45.465Z,102425.13
2023-02-14T09:40:15.501Z,102424.13
2023-02-14T09:43:02.709Z,102420.81
2023-02-14T09:45:33.347Z,102427.56
2023-02-14T09:48:07.909Z,102419.16
2023-02-14T09:50:41.198Z,102421.69
2023-02-14T09:53:19.594Z,102408.28
2023-02-14T09:55:56.191Z,102417.47
2023-02-14T09:58:30.873Z,102420.16
2023-02-14T10:01:05.069Z,102417.50
2023-02-14T10:03:52.851Z,102417.50
2023-02-14T10:06:46.625Z,102417.56
2023-02-14T10:09:25.279Z,102419.38
2023-02-14T10:11:54.220Z,102406.63
2023-02-14T10:14:26.147Z,102409.19
2023-02-14T10:16:57.484Z,102413.00
2023-02-14T10:19:28.608Z,102412.88
2023-02-14T10:22:02.587Z,102409.63
2023-02-14T10:24:36.717Z,102414.25
2023-02-14T10:27:11.750Z,102408.81
2023-02-14T10:29:40.645Z,102407.13
2023-02-14T10:32:14.929Z,102408.25
2023-02-14T10:34:48.866Z,102410.13
2023-02-14T10:37:33.625Z,102409.88
2023-02-14T10:40:22.455Z,102405.63
2023-02-14T10:42:59.838Z,102400.41
2023-02-14T10:45:36.419Z,102395.34
2023-02-14T10:48:14.119Z,102395.34
2023-02-14T10:50:50.641Z,102386.94
2023-02-14T10:53:25.775Z,102388.84
2023-02-14T10:55:58.498Z,102383.66
2023-02-14T10:58:29.981Z,102384.41
2023-02-14T11:01:04.392Z,102379.19
2023-02-14T11:03:35.635Z,102378.97
2023-02-14T11:06:03.848Z,102375.81
2023-02-14T11:08:35.718Z,102365.88
2023-02-14T11:11:17.420Z,102362.44
2023-02-14T11:13:46.061Z,102362.28
2023-02-14T11:16:29.540Z,102361.53
2023-02-14T11:19:10.866Z,102365.97
2023-02-14T11:21:40.637Z,102358.19
2023-02-14T11:24:20.842Z,102353.81
2023-02-14T11:26:53.129Z,102354.88
2023-02-14T11:29:28.131Z,102353.06
2023-02-14T11:31:56.977Z,102350.50
2023-02-14T11:34:36.545Z,102356.56
2023-02-14T11:37:05.603Z,102358.03
2023-02-14T11:39:36.528Z,102349.44
2023-02-14T11:42:06.836Z,102344.47
2023-02-14T11:44:37.171Z,102342.88
2023-02-14T11:47:26.136Z,102338.81
2023-02-14T11:49:58.835Z,102331.16
2023-02-14T11:52:29.671Z,102332.00
2023-02-14T11:54:59.580Z,102332.78
2023-02-14T11:57:32.416Z,102320.03
2023-02-14T12:00:04.930Z,102319.34
2023-02-14T12:02:43.268Z,102318.50
2023-02-14T12:05:21.584Z,102315.16
2023-02-14T12:07:52.914Z,102303.19
2023-02-14T12:10:26.586Z,102298.16
2023-02-14T12:12:57.940Z,102306.63
2023-02-14T12:15:40.338Z,102302.94
2023-02-14T12:18:38.228Z,102302.16
2023-02-14T12:21:22.388Z,102299.69
2023-02-14T12:24:01.532Z,102293.84
2023-02-14T12:26:36.030Z,102297.13
2023-02-14T12:29:13.866Z,102298.09
2023-02-14T12:31:43.101Z,102291.31
2023-02-14T12:34:12.862Z,102283.56
2023-02-14T12:37:03.319Z,102285.25
2023-02-14T12:39:38.719Z,102283.81
2023-02-14T12:42:22.816Z,102280.84
2023-02-14T12:45:01.037Z,102281.66
2023-02-14T12:47:40.522Z,102284.34
2023-02-14T12:50:35.256Z,102276.41
2023-02-14T12:53:32.371Z,102278.94
2023-02-14T12:56:09.934Z,102275.66
2023-02-14T12:58:57.207Z,102272.97
2023-02-14T13:01:39.234Z,102266.03
2023-02-14T13:04:25.542Z,102262.72
2023-02-14T13:06:58.055Z,102264.41
2023-02-14T13:09:36.777Z,102254.88
2023-02-14T13:12:16.874Z,102250.69
2023-02-14T13:15:01.521Z,102245.81
2023-02-14T13:17:38.486Z,102246.69
2023-02-14T13:20:40.612Z,102239.91
2023-02-14T13:23:14.826Z,102233.75
2023-02-14T13:25:50.097Z,102231.09
2023-02-14T13:28:19.707Z,102229.56
2023-02-14T13:30:49.334Z,102227.97
2023-02-14T13:33:34.103Z,102223.81
2023-02-14T13:36:07.943Z,102226.28
2023-02-14T13:38:46.535Z,102231.47
2023-02-14T13:41:16.722Z,102228.84
2023-02-14T13:43:55.290Z,102224.66
2023-02-14T13:46:50.255Z,102224.63
2023-02-14T13:49:28.256Z,102227.28
2023-02-14T13:51:58.687Z,102214.34
2023-02-14T13:54:42.582Z,102212.63
2023-02-14T13:57:40.644Z,102218.72
2023-02-14T14:00:47.025Z,102223.66
2023-02-14T14:03:37.750Z,102216.97
2023-02-14T14:06:08.076Z,102220.47
2023-02-14T14:08:41.491Z,102216.94
2023-02-14T14:11:33.866Z,102210.19
2023-02-14T14:14:05.557Z,102210.00
2023-02-14T14:16:36.560Z,102211.63
2023-02-14T14:19:25.602Z,102199.91
2023-02-14T14:22:02.906Z,102194.81
2023-02-14T14:24:32.375Z,102193.16
2023-02-14T14:27:02.801Z,102195.78
2023-02-14T14:29:35.957Z,102202.53
2023-02-14T14:32:13.714Z,102201.47
2023-02-14T14:34:50.114Z,102192.50
2023-02-14T14:37:20.994Z,102190.59
2023-02-14T14:39:54.506Z,102188.09
2023-02-14T14:42:25.232Z,102190.63
2023-02-14T14:44:58.609Z,102190.69
2023-02-14T14:47:30.744Z,102183.75
2023-02-14T14:50:05.154Z,102187.19
2023-02-14T14:52:37.914Z,102179.50
2023-02-14T14:55:09.603Z,102180.41
2023-02-14T14:57:39.903Z,102180.97
2023-02-14T15:00:27.289Z,102178.41
2023-02-14T15:03:17.594Z,102179.19
2023-02-14T15:05:47.820Z,102172.47
2023-02-14T15:08:23.530Z,102178.47
2023-02-14T15:10:57.288Z,102170.00
2023-02-14T15:13:49.896Z,102170.00
2023-02-14T15:16:22.163Z,102164.00
2023-02-14T15:18:52.330Z,102163.75
2023-02-14T15:21:21.371Z,102167.16
2023-02-14T15:23:50.413Z,102161.09
2023-02-14T15:26:21.544Z,102152.66
2023-02-14T15:29:00.426Z,102155.41
2023-02-14T15:31:32.970Z,102153.66
2023-02-14T15:34:03.434Z,102150.19
2023-02-14T15:36:33.482Z,102152.84
2023-02-14T15:39:03.393Z,102153.66
2023-02-14T15:41:33.763Z,102158.72
2023-02-14T15:44:01.763Z,102145.88
2023-02-14T15:46:37.209Z,102150.13
2023-02-14T15:49:11.345Z,102152.56
2023-02-14T15:51:40.548Z,102151.09
2023-02-14T15:54:19.470Z,102149.84
2023-02-14T15:56:50.233Z,102152.47
2023-02-14T15:59:21.210Z,102146.41
2023-02-14T16:01:56.521Z,102149.94
2023-02-14T16:04:26.255Z,102142.25
2023-02-14T16:07:07.563Z,102149.06
2023-02-14T16:09:36.486Z,102146.31
2023-02-14T16:12:32.477Z,102141.13
2023-02-14T16:15:04.332Z,102135.13
2023-02-14T16:17:35.676Z,102141.09
2023-02-14T16:20:23.422Z,102145.34
2023-02-14T16:22:52.100Z,102139.44
2023-02-14T16:25:21.792Z,102149.63
2023-02-14T16:27:49.993Z,102136.72
2023-02-14T16:30:20.078Z,102143.69
2023-02-14T16:32:53.675Z,102143.66
2023-02-14T16:35:22.894Z,102141.81
2023-02-14T16:37:52.581Z,102144.34
2023-02-14T16:40:26.724Z,102144.31
2023-02-14T16:42:54.936Z,102141.56
2023-02-14T16:45:23.115Z,102141.72
2023-02-14T16:47:52.720Z,102144.28
2023-02-14T16:50:22.821Z,102139.25
2023-02-14T16:52:55.896Z,102141.00
2023-02-14T16:55:26.497Z,102141.91
2023-02-14T16:57:54.518Z,102141.81
2023-02-14T17:00:24.029Z,102145.00
2023-02-14T17:03:04.683Z,102150.34
2023-02-14T17:05:36.842Z,102165.66
2023-02-14T17:08:10.139Z,102159.75
2023-02-14T17:10:39.179Z,102159.69
2023-02-14T17:13:07.865Z,102172.38
2023-02-14T17:15:36.392Z,102174.13
2023-02-14T17:18:11.260Z,102162.22
2023-02-14T17:20:39.585Z,102165.66
2023-02-14T17:23:07.299Z,102162.34
2023-02-14T17:25:35.211Z,102165.69
2023-02-14T17:28:03.017Z,102167.38
2023-02-14T17:30:30.995Z,102170.00
2023-02-14T17:32:59.206Z,102174.25
2023-02-14T17:35:28.868Z,102175.19
2023-02-14T17:37:56.653Z,102174.19
2023-02-14T17:40:24.627Z,102178.47
2023-02-14T17:42:52.385Z,102174.22
2023-02-14T17:45:20.866Z,102180.94
2023-02-14T17:47:49.021Z,102182.59
2023-02-14T17:50:18.541Z,102168.00
2023-02-14T17:52:47.631Z,102163.75
2023-02-14T17:55:16.667Z,102166.09
2023-02-14T17:57:44.317Z,102163.50
2023-02-14T18:00:16.190Z,102167.00
2023-02-14T18:02:44.195Z,102160.25
2023-02-14T18:05:12.447Z,102157.75
2023-02-14T18:07:40.342Z,102149.22
2023-02-14T18:10:10.510Z,102148.44
2023-02-14T18:12:38.320Z,102147.53
2023-02-14T18:15:06.676Z,102140.53
2023-02-14T18:17:34.356Z,102148.25
2023-02-14T18:20:03.167Z,102143.94
2023-02-14T18:22:32.124Z,102144.09
2023-02-14T18:24:59.867Z,102140.66
2023-02-14T18:27:29.287Z,102137.19
2023-02-14T18:29:57.498Z,102136.38
2023-02-14T18:32:25.330Z,102138.94
2023-02-14T18:34:53.212Z,102137.22
2023-02-14T18:37:21.334Z,102136.50
2023-02-14T18:39:49.352Z,102135.63
2023-02-14T18:42:17.354Z,102124.44
2023-02-14T18:44:47.104Z,102124.28
2023-02-14T18:47:15.257Z,102116.56
2023-02-14T18:49:43.064Z,102109.94
2023-02-14T18:52:12.087Z,102112.50
2023-02-14T18:54:43.620Z,102117.69
2023-02-14T18:57:13.430Z,102115.84
2023-02-14T18:59:41.490Z,102114.88
2023-02-14T19:02:12.463Z,102113.13
2023-02-14T19:04:41.158Z,102116.44
2023-02-14T19:07:10.038Z,102113.84
2023-02-14T19:09:40.432Z,102108.84
2023-02-14T19:12:08.957Z,102105.31
2023-02-14T19:14:37.730Z,102102.75
2023-02-14T19:17:07.019Z,102100.31
2023-02-14T19:19:36.813Z,102102.81
2023-02-14T19:22:05.234Z,102096.66
2023-02-14T19:24:32.868Z,102099.31
2023-02-14T19:27:00.554Z,102094.97
2023-02-14T19:29:28.290Z,102095.03
2023-02-14T19:31:56.269Z,102096.16
2023-02-14T19:34:28.946Z,102092.50
2023-02-14T19:37:00.767Z,102089.16
2023-02-14T19:39:30.573Z,102089.06
2023-02-14T19:41:59.411Z,102090.84
2023-02-14T19:44:29.220Z,102089.84
2023-02-14T19:47:00.032Z,102087.28
2023-02-14T19:49:29.758Z,102083.00
2023-02-14T19:52:00.106Z,102078.72
2023-02-14T19:54:29.847Z,102083.06
2023-02-14T19:56:58.179Z,102072.75
2023-02-14T19:59:27.861Z,102074.53
2023-02-14T20:01:58.434Z,102074.44
2023-02-14T20:04:28.942Z,102074.50
2023-02-14T20:06:58.798Z,102070.16
2023-02-14T20:09:27.061Z,102073.56
2023-02-14T20:11:56.969Z,102070.31
2023-02-14T20:14:27.259Z,102060.84
2023-02-14T20:16:57.364Z,102055.66
2023-02-14T20:19:28.032Z,102058.13
2023-02-14T20:21:56.383Z,102061.63
2023-02-14T20:24:28.263Z,102057.31
2023-02-14T20:26:56.827Z,102058.25
2023-02-14T20:29:26.591Z,102054.81
2023-02-14T20:31:58.123Z,102062.47
2023-02-14T20:34:26.691Z,102057.25
2023-02-14T20:36:55.816Z,102056.38
2023-02-14T20:39:30.499Z,102047.84
2023-02-14T20:41:58.576Z,102051.19
2023-02-14T20:44:26.799Z,102045.19
2023-02-14T20:46:57.423Z,102040.94
2023-02-14T20:49:27.144Z,102037.50
2023-02-14T20:51:56.138Z,102029.84
2023-02-14T20:54:28.783Z,102035.78
2023-02-14T20:56:58.469Z,102029.84
2023-02-14T20:59:28.756Z,102022.09
2023-02-14T21:01:58.564Z,102018.66
2023-02-14T21:04:26.775Z,102022.97
2023-02-14T21:06:54.842Z,102016.91
2023-02-14T21:09:23.319Z,102013.50
2023-02-14T21:11:53.961Z,102014.34
2023-02-14T21:14:22.195Z,102019.47
2023-02-14T21:16:50.167Z,102017.66
2023-02-14T21:19:18.652Z,102018.50
2023-02-14T21:21:46.697Z,102021.91
2023-02-14T21:24:16.907Z,102012.53
2023-02-14T21:26:45.131Z,102014.97
2023-02-14T21:29:14.658Z,102016.78
2023-02-14T21:31:43.086Z,102020.25
2023-02-14T21:34:13.371Z,102009.94
2023-02-14T21:36:41.561Z,102004.78
2023-02-14T21:39:09.839Z,102006.66
2023-02-14T21:41:38.649Z,102007.53
2023-02-14T21:44:07.456Z,102005.94
2023-02-14T21:46:39.441Z,102006.41
2023-02-14T21:49:24.728Z,102006.38
2023-02-14T21:51:52.817Z,102002.97
2023-02-14T21:54:20.806Z,102001.34
2023-02-14T21:56:50.325Z,101992.69
2023-02-14T21:59:18.704Z,101997.81
2023-02-14T22:01:47.980Z,101996.09
2023-02-14T22:04:15.687Z,101996.09
2023-02-14T22:06:43.806Z,101992.72
2023-02-14T22:09:14.321Z,101991.84
2023-02-14T22:11:42.182Z,101985.13
2023-02-14T22:14:10.065Z,101994.47
2023-02-14T22:16:38.407Z,101993.44
2023-02-14T22:19:08.563Z,101985.69
2023-02-14T22:21:36.330Z,101982.31
2023-02-14T22:24:05.127Z,101983.16
2023-02-14T22:26:35.395Z,101989.09
2023-02-14T22:29:03.513Z,101994.91
2023-02-14T22:31:34.347Z,101991.50
2023-02-14T22:34:02.141Z,101988.13
2023-02-14T22:36:31.269Z,101986.47
2023-02-14T22:38:58.969Z,101981.34
2023-02-14T22:41:27.238Z,101983.84
2023-02-14T22:43:55.617Z,101974.44
2023-02-14T22:46:25.110Z,101976.25
2023-02-14T22:48:54.320Z,101974.53
2023-02-14T22:51:24.048Z,101976.25
2023-02-14T22:53:56.074Z,101971.28
2023-02-14T22:56:26.463Z,101977.09
2023-02-14T22:58:55.263Z,101968.81
2023-02-14T23:01:24.376Z,101965.41
2023-02-14T23:03:54.946Z,101966.84
2023-02-14T23:06:23.306Z,101965.09
2023-02-14T23:08:51.165Z,101968.63
2023-02-14T23:11:23.372Z,101970.25
2023-02-14T23:14:08.477Z,101975.38
2023-02-14T23:16:54.040Z,101967.69
2023-02-14T23:19:40.931Z,101972.19
2023-02-14T23:22:10.341Z,101978.00
2023-02-14T23:24:38.868Z,101974.56
2023-02-14T23:27:09.129Z,101980.53
2023-02-14T23:29:37.443Z,101975.38
2023-02-14T23:32:06.353Z,101971.97
2023-02-14T23:34:37.111Z,101973.66
2023-02-14T23:37:05.570Z,101970.31
2023-02-14T23:39:35.875Z,101967.75
2023-02-14T23:42:03.928Z,101975.38
2023-02-14T23:44:33.930Z,101978.78
2023-02-14T23:47:04.174Z,101977.91
2023-02-14T23:49:32.923Z,101972.00
2023-02-14T23:52:01.948Z,101969.53
2023-02-14T23:54:29.795Z,101968.63
2023-02-14T23:56:58.326Z,101965.97
2023-02-14T23:59:26.244Z,101957.63
